sensor_id;sensor_type;location;lat;lon;timestamp;temperature;humidity
15107;DHT22;7654;45.308;-75.096;2022-09-09T00:02:02;18.40;99.90
15107;DHT22;7654;45.308;-75.096;2022-09-09T00:04:34;18.30;99.90
15107;DHT22;7654;45.308;-75.096;2022-09-09T00:07:05;18.20;99.90
15107;DHT22;7654;45.308;-75.096;2022-09-09T00:09:38;18.10;99.90
15107;DHT22;7654;45.308;-75.096;2022-09-09T00:12:10;18.10;99.90
15107;DHT22;7654;45.308;-75.096;2022-09-09T00:14:45;18.00;99.90
15107;DHT22;7654;45.308;-75.096;2022-09-09T00:17:20;17.90;99.90
15107;DHT22;7654;45.308;-75.096;2022-09-09T00:19:54;17.80;99.90
15107;DHT22;7654;45.308;-75.096;2022-09-09T00:22:27;17.70;99.90
15107;DHT22;7654;45.308;-75.096;2022-09-09T00:25:00;17.50;99.90
15107;DHT22;7654;45.308;-75.096;2022-09-09T00:27:32;17.50;99.90
15107;DHT22;7654;45.308;-75.096;2022-09-09T00:30:15;17.50;99.90
15107;DHT22;7654;45.308;-75.096;2022-09-09T00:32:47;17.60;99.90
15107;DHT22;7654;45.308;-75.096;2022-09-09T00:35:18;17.50;99.90
15107;DHT22;7654;45.308;-75.096;2022-09-09T00:37:54;17.30;99.90
15107;DHT22;7654;45.308;-75.096;2022-09-09T00:40:27;17.30;99.90
15107;DHT22;7654;45.308;-75.096;2022-09-09T00:43:02;17.30;99.90
15107;DHT22;7654;45.308;-75.096;2022-09-09T00:45:41;17.20;99.90
15107;DHT22;7654;45.308;-75.096;2022-09-09T00:48:17;17.20;99.90
15107;DHT22;7654;45.308;-75.096;2022-09-09T00:50:48;17.10;99.90
15107;DHT22;7654;45.308;-75.096;2022-09-09T00:53:23;17.10;99.90
15107;DHT22;7654;45.308;-75.096;2022-09-09T00:55:54;17.10;99.90
15107;DHT22;7654;45.308;-75.096;2022-09-09T00:58:25;17.10;99.90
15107;DHT22;7654;45.308;-75.096;2022-09-09T01:00:58;17.00;99.90
15107;DHT22;7654;45.308;-75.096;2022-09-09T01:03:35;17.00;99.90
15107;DHT22;7654;45.308;-75.096;2022-09-09T01:06:13;17.10;99.90
15107;DHT22;7654;45.308;-75.096;2022-09-09T01:08:59;17.10;99.90
15107;DHT22;7654;45.308;-75.096;2022-09-09T01:11:33;17.10;99.90
15107;DHT22;7654;45.308;-75.096;2022-09-09T01:14:10;16.90;99.90
15107;DHT22;7654;45.308;-75.096;2022-09-09T01:16:44;16.90;99.90
15107;DHT22;7654;45.308;-75.096;2022-09-09T01:19:16;16.80;99.90
15107;DHT22;7654;45.308;-75.096;2022-09-09T01:21:49;16.70;99.90
15107;DHT22;7654;45.308;-75.096;2022-09-09T01:24:22;16.70;99.90
15107;DHT22;7654;45.308;-75.096;2022-09-09T01:26:59;16.60;99.90
15107;DHT22;7654;45.308;-75.096;2022-09-09T01:29:30;16.60;99.90
15107;DHT22;7654;45.308;-75.096;2022-09-09T01:32:00;16.50;99.90
15107;DHT22;7654;45.308;-75.096;2022-09-09T01:34:30;16.50;99.90
15107;DHT22;7654;45.308;-75.096;2022-09-09T01:37:02;16.50;99.90
15107;DHT22;7654;45.308;-75.096;2022-09-09T01:39:33;16.50;99.90
15107;DHT22;7654;45.308;-75.096;2022-09-09T01:42:06;16.50;99.90
15107;DHT22;7654;45.308;-75.096;2022-09-09T01:44:39;16.40;99.90
15107;DHT22;7654;45.308;-75.096;2022-09-09T01:47:09;16.40;99.90
15107;DHT22;7654;45.308;-75.096;2022-09-09T01:55:18;16.20;99.90
15107;DHT22;7654;45.308;-75.096;2022-09-09T01:57:56;16.10;99.90
15107;DHT22;7654;45.308;-75.096;2022-09-09T02:00:30;16.00;99.90
15107;DHT22;7654;45.308;-75.096;2022-09-09T02:03:05;16.00;99.90
15107;DHT22;7654;45.308;-75.096;2022-09-09T02:05:40;16.00;99.90
15107;DHT22;7654;45.308;-75.096;2022-09-09T02:08:14;15.90;99.90
15107;DHT22;7654;45.308;-75.096;2022-09-09T02:10:46;15.90;99.90
15107;DHT22;7654;45.308;-75.096;2022-09-09T02:16:25;15.90;99.90
15107;DHT22;7654;45.308;-75.096;2022-09-09T02:18:57;15.70;99.90
15107;DHT22;7654;45.308;-75.096;2022-09-09T02:21:30;15.80;99.90
15107;DHT22;7654;45.308;-75.096;2022-09-09T02:24:02;15.80;99.90
15107;DHT22;7654;45.308;-75.096;2022-09-09T02:26:36;15.70;99.90
15107;DHT22;7654;45.308;-75.096;2022-09-09T02:29:08;15.60;99.90
15107;DHT22;7654;45.308;-75.096;2022-09-09T02:31:39;15.60;99.90
15107;DHT22;7654;45.308;-75.096;2022-09-09T02:34:10;15.70;99.90
15107;DHT22;7654;45.308;-75.096;2022-09-09T02:36:41;15.70;99.90
15107;DHT22;7654;45.308;-75.096;2022-09-09T02:39:13;15.60;99.90
15107;DHT22;7654;45.308;-75.096;2022-09-09T02:41:52;15.60;99.90
15107;DHT22;7654;45.308;-75.096;2022-09-09T02:44:21;15.60;99.90
15107;DHT22;7654;45.308;-75.096;2022-09-09T02:46:57;15.60;99.90
15107;DHT22;7654;45.308;-75.096;2022-09-09T02:49:32;15.50;99.90
15107;DHT22;7654;45.308;-75.096;2022-09-09T02:52:06;15.50;99.90
15107;DHT22;7654;45.308;-75.096;2022-09-09T02:54:37;15.50;99.90
15107;DHT22;7654;45.308;-75.096;2022-09-09T02:57:08;15.50;99.90
15107;DHT22;7654;45.308;-75.096;2022-09-09T02:59:39;15.40;99.90
15107;DHT22;7654;45.308;-75.096;2022-09-09T03:02:11;15.40;99.90
15107;DHT22;7654;45.308;-75.096;2022-09-09T03:04:40;15.30;99.90
15107;DHT22;7654;45.308;-75.096;2022-09-09T03:07:11;15.30;99.90
15107;DHT22;7654;45.308;-75.096;2022-09-09T03:09:41;15.30;99.90
15107;DHT22;7654;45.308;-75.096;2022-09-09T03:12:11;15.30;99.90
15107;DHT22;7654;45.308;-75.096;2022-09-09T03:14:41;15.40;99.90
15107;DHT22;7654;45.308;-75.096;2022-09-09T03:17:14;15.40;99.90
15107;DHT22;7654;45.308;-75.096;2022-09-09T03:19:44;15.30;99.90
15107;DHT22;7654;45.308;-75.096;2022-09-09T03:22:14;15.20;99.90
15107;DHT22;7654;45.308;-75.096;2022-09-09T03:24:43;15.10;99.90
15107;DHT22;7654;45.308;-75.096;2022-09-09T03:27:14;15.00;99.90
15107;DHT22;7654;45.308;-75.096;2022-09-09T03:29:43;15.00;99.90
15107;DHT22;7654;45.308;-75.096;2022-09-09T03:32:14;15.10;99.90
15107;DHT22;7654;45.308;-75.096;2022-09-09T03:34:44;15.10;99.90
15107;DHT22;7654;45.308;-75.096;2022-09-09T03:37:17;15.10;99.90
15107;DHT22;7654;45.308;-75.096;2022-09-09T03:39:46;15.10;99.90
15107;DHT22;7654;45.308;-75.096;2022-09-09T03:42:16;15.10;99.90
15107;DHT22;7654;45.308;-75.096;2022-09-09T03:44:47;15.20;99.90
15107;DHT22;7654;45.308;-75.096;2022-09-09T03:47:19;15.10;99.90
15107;DHT22;7654;45.308;-75.096;2022-09-09T03:49:49;15.00;99.90
15107;DHT22;7654;45.308;-75.096;2022-09-09T03:52:18;15.00;99.90
15107;DHT22;7654;45.308;-75.096;2022-09-09T03:54:49;15.00;99.90
15107;DHT22;7654;45.308;-75.096;2022-09-09T03:57:19;15.00;99.90
15107;DHT22;7654;45.308;-75.096;2022-09-09T03:59:49;14.90;99.90
15107;DHT22;7654;45.308;-75.096;2022-09-09T04:02:20;15.00;99.90
15107;DHT22;7654;45.308;-75.096;2022-09-09T04:04:50;15.00;99.90
15107;DHT22;7654;45.308;-75.096;2022-09-09T04:07:19;15.00;99.90
15107;DHT22;7654;45.308;-75.096;2022-09-09T04:09:49;15.00;99.90
15107;DHT22;7654;45.308;-75.096;2022-09-09T04:12:18;14.90;99.90
15107;DHT22;7654;45.308;-75.096;2022-09-09T04:14:48;14.90;99.90
15107;DHT22;7654;45.308;-75.096;2022-09-09T04:17:18;14.90;99.90
15107;DHT22;7654;45.308;-75.096;2022-09-09T04:19:49;14.80;99.90
15107;DHT22;7654;45.308;-75.096;2022-09-09T04:22:19;14.80;99.90
15107;DHT22;7654;45.308;-75.096;2022-09-09T04:24:49;14.80;99.90
15107;DHT22;7654;45.308;-75.096;2022-09-09T04:27:19;14.90;99.90
15107;DHT22;7654;45.308;-75.096;2022-09-09T04:29:48;14.80;99.90
15107;DHT22;7654;45.308;-75.096;2022-09-09T04:32:18;14.80;99.90
15107;DHT22;7654;45.308;-75.096;2022-09-09T04:34:50;14.70;99.90
15107;DHT22;7654;45.308;-75.096;2022-09-09T04:37:19;14.60;99.90
15107;DHT22;7654;45.308;-75.096;2022-09-09T04:39:49;14.50;99.90
15107;DHT22;7654;45.308;-75.096;2022-09-09T04:42:18;14.50;99.90
15107;DHT22;7654;45.308;-75.096;2022-09-09T04:44:48;14.50;99.90
15107;DHT22;7654;45.308;-75.096;2022-09-09T04:47:18;14.40;99.90
15107;DHT22;7654;45.308;-75.096;2022-09-09T04:49:47;14.40;99.90
15107;DHT22;7654;45.308;-75.096;2022-09-09T04:52:19;14.40;99.90
15107;DHT22;7654;45.308;-75.096;2022-09-09T04:54:48;14.30;99.90
15107;DHT22;7654;45.308;-75.096;2022-09-09T04:57:18;14.30;99.90
15107;DHT22;7654;45.308;-75.096;2022-09-09T04:59:47;14.30;99.90
15107;DHT22;7654;45.308;-75.096;2022-09-09T05:02:17;14.20;99.90
15107;DHT22;7654;45.308;-75.096;2022-09-09T05:04:47;14.20;99.90
15107;DHT22;7654;45.308;-75.096;2022-09-09T05:07:18;14.30;99.90
15107;DHT22;7654;45.308;-75.096;2022-09-09T05:09:48;14.20;99.90
15107;DHT22;7654;45.308;-75.096;2022-09-09T05:12:18;14.10;99.90
15107;DHT22;7654;45.308;-75.096;2022-09-09T05:14:47;14.00;99.90
15107;DHT22;7654;45.308;-75.096;2022-09-09T05:17:17;14.00;99.90
15107;DHT22;7654;45.308;-75.096;2022-09-09T05:19:47;14.00;99.90
15107;DHT22;7654;45.308;-75.096;2022-09-09T05:22:20;14.00;99.90
15107;DHT22;7654;45.308;-75.096;2022-09-09T05:24:52;13.90;99.90
15107;DHT22;7654;45.308;-75.096;2022-09-09T05:27:21;13.90;99.90
15107;DHT22;7654;45.308;-75.096;2022-09-09T05:29:51;13.80;99.90
15107;DHT22;7654;45.308;-75.096;2022-09-09T05:32:20;13.80;99.90
15107;DHT22;7654;45.308;-75.096;2022-09-09T05:34:50;13.90;99.90
15107;DHT22;7654;45.308;-75.096;2022-09-09T05:37:21;13.90;99.90
15107;DHT22;7654;45.308;-75.096;2022-09-09T05:39:51;13.90;99.90
15107;DHT22;7654;45.308;-75.096;2022-09-09T05:42:20;13.90;99.90
15107;DHT22;7654;45.308;-75.096;2022-09-09T05:44:50;13.90;99.90
15107;DHT22;7654;45.308;-75.096;2022-09-09T05:47:22;13.80;99.90
15107;DHT22;7654;45.308;-75.096;2022-09-09T05:49:51;13.90;99.90
15107;DHT22;7654;45.308;-75.096;2022-09-09T05:52:22;13.90;99.90
15107;DHT22;7654;45.308;-75.096;2022-09-09T05:54:53;13.80;99.90
15107;DHT22;7654;45.308;-75.096;2022-09-09T05:57:24;13.80;99.90
15107;DHT22;7654;45.308;-75.096;2022-09-09T05:59:53;13.70;99.90
15107;DHT22;7654;45.308;-75.096;2022-09-09T06:02:23;13.70;99.90
15107;DHT22;7654;45.308;-75.096;2022-09-09T06:04:53;13.80;99.90
15107;DHT22;7654;45.308;-75.096;2022-09-09T06:07:28;13.80;99.90
15107;DHT22;7654;45.308;-75.096;2022-09-09T06:09:57;13.80;99.90
15107;DHT22;7654;45.308;-75.096;2022-09-09T06:12:27;13.80;99.90
15107;DHT22;7654;45.308;-75.096;2022-09-09T06:14:56;13.80;99.90
15107;DHT22;7654;45.308;-75.096;2022-09-09T06:17:26;13.80;99.90
15107;DHT22;7654;45.308;-75.096;2022-09-09T06:19:56;13.70;99.90
15107;DHT22;7654;45.308;-75.096;2022-09-09T06:22:28;13.60;99.90
15107;DHT22;7654;45.308;-75.096;2022-09-09T06:24:58;13.50;99.90
15107;DHT22;7654;45.308;-75.096;2022-09-09T06:27:28;13.50;99.90
15107;DHT22;7654;45.308;-75.096;2022-09-09T06:29:58;13.40;99.90
15107;DHT22;7654;45.308;-75.096;2022-09-09T06:32:28;13.40;99.90
15107;DHT22;7654;45.308;-75.096;2022-09-09T06:34:57;13.40;99.90
15107;DHT22;7654;45.308;-75.096;2022-09-09T06:37:30;13.40;99.90
15107;DHT22;7654;45.308;-75.096;2022-09-09T06:39:59;13.30;99.90
15107;DHT22;7654;45.308;-75.096;2022-09-09T06:42:29;13.30;99.90
15107;DHT22;7654;45.308;-75.096;2022-09-09T06:44:59;13.30;99.90
15107;DHT22;7654;45.308;-75.096;2022-09-09T06:47:29;13.40;99.90
15107;DHT22;7654;45.308;-75.096;2022-09-09T06:49:58;13.40;99.90
15107;DHT22;7654;45.308;-75.096;2022-09-09T06:52:27;13.40;99.90
15107;DHT22;7654;45.308;-75.096;2022-09-09T06:54:59;13.30;99.90
15107;DHT22;7654;45.308;-75.096;2022-09-09T06:57:28;13.30;99.90
15107;DHT22;7654;45.308;-75.096;2022-09-09T07:00:05;13.20;99.90
15107;DHT22;7654;45.308;-75.096;2022-09-09T07:02:35;13.20;99.90
15107;DHT22;7654;45.308;-75.096;2022-09-09T07:05:09;13.20;99.90
15107;DHT22;7654;45.308;-75.096;2022-09-09T07:07:44;13.20;99.90
15107;DHT22;7654;45.308;-75.096;2022-09-09T07:10:15;13.10;99.90
15107;DHT22;7654;45.308;-75.096;2022-09-09T07:12:44;13.00;99.90
15107;DHT22;7654;45.308;-75.096;2022-09-09T07:15:14;12.90;99.90
15107;DHT22;7654;45.308;-75.096;2022-09-09T07:17:43;13.00;99.90
15107;DHT22;7654;45.308;-75.096;2022-09-09T07:20:14;13.10;99.90
15107;DHT22;7654;45.308;-75.096;2022-09-09T07:22:43;13.10;99.90
15107;DHT22;7654;45.308;-75.096;2022-09-09T07:25:15;13.10;99.90
15107;DHT22;7654;45.308;-75.096;2022-09-09T07:27:45;13.10;99.90
15107;DHT22;7654;45.308;-75.096;2022-09-09T07:30:15;13.10;99.90
15107;DHT22;7654;45.308;-75.096;2022-09-09T07:32:52;13.20;99.90
15107;DHT22;7654;45.308;-75.096;2022-09-09T07:35:25;13.20;99.90
15107;DHT22;7654;45.308;-75.096;2022-09-09T07:37:54;13.20;99.90
15107;DHT22;7654;45.308;-75.096;2022-09-09T07:40:27;13.20;99.90
15107;DHT22;7654;45.308;-75.096;2022-09-09T07:42:57;13.20;99.90
15107;DHT22;7654;45.308;-75.096;2022-09-09T07:45:27;13.20;99.90
15107;DHT22;7654;45.308;-75.096;2022-09-09T07:47:58;13.20;99.90
15107;DHT22;7654;45.308;-75.096;2022-09-09T07:50:27;13.20;99.90
15107;DHT22;7654;45.308;-75.096;2022-09-09T07:52:57;13.20;99.90
15107;DHT22;7654;45.308;-75.096;2022-09-09T07:55:28;13.20;99.90
15107;DHT22;7654;45.308;-75.096;2022-09-09T07:57:58;13.30;99.90
15107;DHT22;7654;45.308;-75.096;2022-09-09T08:00:27;13.20;99.90
15107;DHT22;7654;45.308;-75.096;2022-09-09T08:02:57;13.20;99.90
15107;DHT22;7654;45.308;-75.096;2022-09-09T08:05:29;13.20;99.90
15107;DHT22;7654;45.308;-75.096;2022-09-09T08:07:59;13.20;99.90
15107;DHT22;7654;45.308;-75.096;2022-09-09T08:10:30;13.30;99.90
15107;DHT22;7654;45.308;-75.096;2022-09-09T08:12:59;13.40;99.90
15107;DHT22;7654;45.308;-75.096;2022-09-09T08:15:44;13.50;99.90
15107;DHT22;7654;45.308;-75.096;2022-09-09T08:18:14;13.40;99.90
15107;DHT22;7654;45.308;-75.096;2022-09-09T08:20:44;13.40;99.90
15107;DHT22;7654;45.308;-75.096;2022-09-09T08:23:14;13.40;99.90
15107;DHT22;7654;45.308;-75.096;2022-09-09T08:25:45;13.40;99.90
15107;DHT22;7654;45.308;-75.096;2022-09-09T08:28:16;13.40;99.90
15107;DHT22;7654;45.308;-75.096;2022-09-09T08:30:45;13.40;99.90
15107;DHT22;7654;45.308;-75.096;2022-09-09T08:33:15;13.40;99.90
15107;DHT22;7654;45.308;-75.096;2022-09-09T08:35:49;13.40;99.90
15107;DHT22;7654;45.308;-75.096;2022-09-09T08:38:19;13.40;99.90
15107;DHT22;7654;45.308;-75.096;2022-09-09T08:40:50;13.40;99.90
15107;DHT22;7654;45.308;-75.096;2022-09-09T08:43:23;13.40;99.90
15107;DHT22;7654;45.308;-75.096;2022-09-09T08:45:55;13.30;99.90
15107;DHT22;7654;45.308;-75.096;2022-09-09T08:48:30;13.40;99.90
15107;DHT22;7654;45.308;-75.096;2022-09-09T08:51:06;13.50;99.90
15107;DHT22;7654;45.308;-75.096;2022-09-09T08:53:38;13.50;99.90
15107;DHT22;7654;45.308;-75.096;2022-09-09T08:56:11;13.40;99.90
15107;DHT22;7654;45.308;-75.096;2022-09-09T08:58:42;13.40;99.90
15107;DHT22;7654;45.308;-75.096;2022-09-09T09:01:16;13.40;99.90
15107;DHT22;7654;45.308;-75.096;2022-09-09T09:03:49;13.30;99.90
15107;DHT22;7654;45.308;-75.096;2022-09-09T09:06:25;13.30;99.90
15107;DHT22;7654;45.308;-75.096;2022-09-09T09:08:58;13.20;99.90
15107;DHT22;7654;45.308;-75.096;2022-09-09T09:11:35;13.20;99.90
15107;DHT22;7654;45.308;-75.096;2022-09-09T09:14:08;13.20;99.90
15107;DHT22;7654;45.308;-75.096;2022-09-09T09:16:39;13.10;99.90
15107;DHT22;7654;45.308;-75.096;2022-09-09T09:19:11;13.00;99.90
15107;DHT22;7654;45.308;-75.096;2022-09-09T09:21:43;13.10;99.90
15107;DHT22;7654;45.308;-75.096;2022-09-09T09:24:15;13.10;99.90
15107;DHT22;7654;45.308;-75.096;2022-09-09T09:26:49;13.10;99.90
15107;DHT22;7654;45.308;-75.096;2022-09-09T09:29:20;13.20;99.90
15107;DHT22;7654;45.308;-75.096;2022-09-09T09:31:51;13.20;99.90
15107;DHT22;7654;45.308;-75.096;2022-09-09T09:34:22;13.30;99.90
15107;DHT22;7654;45.308;-75.096;2022-09-09T09:36:53;13.30;99.90
15107;DHT22;7654;45.308;-75.096;2022-09-09T09:39:24;13.20;99.90
15107;DHT22;7654;45.308;-75.096;2022-09-09T09:42:16;13.20;99.90
15107;DHT22;7654;45.308;-75.096;2022-09-09T09:44:49;13.20;99.90
15107;DHT22;7654;45.308;-75.096;2022-09-09T09:47:20;13.20;99.90
15107;DHT22;7654;45.308;-75.096;2022-09-09T09:49:51;13.20;99.90
15107;DHT22;7654;45.308;-75.096;2022-09-09T09:52:22;13.30;99.90
15107;DHT22;7654;45.308;-75.096;2022-09-09T09:54:52;13.30;99.90
15107;DHT22;7654;45.308;-75.096;2022-09-09T09:57:25;13.30;99.90
15107;DHT22;7654;45.308;-75.096;2022-09-09T10:00:04;13.40;99.90
15107;DHT22;7654;45.308;-75.096;2022-09-09T10:02:37;13.40;99.90
15107;DHT22;7654;45.308;-75.096;2022-09-09T10:05:12;13.50;99.90
15107;DHT22;7654;45.308;-75.096;2022-09-09T10:07:42;13.60;99.90
15107;DHT22;7654;45.308;-75.096;2022-09-09T10:10:15;13.70;99.90
15107;DHT22;7654;45.308;-75.096;2022-09-09T10:12:52;13.60;99.90
15107;DHT22;7654;45.308;-75.096;2022-09-09T10:15:27;13.50;99.90
15107;DHT22;7654;45.308;-75.096;2022-09-09T10:18:01;13.40;99.90
15107;DHT22;7654;45.308;-75.096;2022-09-09T10:20:36;13.40;99.90
15107;DHT22;7654;45.308;-75.096;2022-09-09T10:23:13;13.30;99.90
15107;DHT22;7654;45.308;-75.096;2022-09-09T10:25:55;13.30;99.90
15107;DHT22;7654;45.308;-75.096;2022-09-09T10:28:36;13.40;99.90
15107;DHT22;7654;45.308;-75.096;2022-09-09T10:31:12;13.30;99.90
15107;DHT22;7654;45.308;-75.096;2022-09-09T10:33:47;13.20;99.90
15107;DHT22;7654;45.308;-75.096;2022-09-09T10:36:19;13.10;99.90
15107;DHT22;7654;45.308;-75.096;2022-09-09T10:38:52;13.10;99.90
15107;DHT22;7654;45.308;-75.096;2022-09-09T10:41:25;13.10;99.90
15107;DHT22;7654;45.308;-75.096;2022-09-09T10:47:04;13.20;99.90
15107;DHT22;7654;45.308;-75.096;2022-09-09T10:49:44;13.30;99.90
15107;DHT22;7654;45.308;-75.096;2022-09-09T10:52:20;13.30;99.90
15107;DHT22;7654;45.308;-75.096;2022-09-09T10:54:53;13.20;99.90
15107;DHT22;7654;45.308;-75.096;2022-09-09T10:57:27;13.30;99.90
15107;DHT22;7654;45.308;-75.096;2022-09-09T11:00:01;13.20;99.90
15107;DHT22;7654;45.308;-75.096;2022-09-09T11:02:34;13.20;99.90
15107;DHT22;7654;45.308;-75.096;2022-09-09T11:05:04;13.20;99.90
15107;DHT22;7654;45.308;-75.096;2022-09-09T11:07:35;13.20;99.90
15107;DHT22;7654;45.308;-75.096;2022-09-09T11:10:12;13.20;99.90
15107;DHT22;7654;45.308;-75.096;2022-09-09T11:12:44;13.30;99.90
15107;DHT22;7654;45.308;-75.096;2022-09-09T11:15:16;13.30;99.90
15107;DHT22;7654;45.308;-75.096;2022-09-09T11:17:48;13.30;99.90
15107;DHT22;7654;45.308;-75.096;2022-09-09T11:20:19;13.40;99.90
15107;DHT22;7654;45.308;-75.096;2022-09-09T11:22:50;13.40;99.90
15107;DHT22;7654;45.308;-75.096;2022-09-09T11:25:21;13.40;99.90
15107;DHT22;7654;45.308;-75.096;2022-09-09T11:28:02;13.50;99.90
15107;DHT22;7654;45.308;-75.096;2022-09-09T11:30:42;13.50;99.90
15107;DHT22;7654;45.308;-75.096;2022-09-09T11:33:41;13.70;99.90
15107;DHT22;7654;45.308;-75.096;2022-09-09T11:36:25;13.80;99.90
15107;DHT22;7654;45.308;-75.096;2022-09-09T11:38:56;14.00;99.90
15107;DHT22;7654;45.308;-75.096;2022-09-09T11:41:33;14.10;99.90
15107;DHT22;7654;45.308;-75.096;2022-09-09T11:44:09;14.20;99.90
15107;DHT22;7654;45.308;-75.096;2022-09-09T11:46:40;14.30;99.90
15107;DHT22;7654;45.308;-75.096;2022-09-09T11:49:25;14.40;99.90
15107;DHT22;7654;45.308;-75.096;2022-09-09T11:51:56;14.50;99.90
15107;DHT22;7654;45.308;-75.096;2022-09-09T11:54:27;14.60;99.90
15107;DHT22;7654;45.308;-75.096;2022-09-09T11:56:57;14.70;99.90
15107;DHT22;7654;45.308;-75.096;2022-09-09T11:59:28;14.80;99.90
15107;DHT22;7654;45.308;-75.096;2022-09-09T12:01:58;14.90;99.90
15107;DHT22;7654;45.308;-75.096;2022-09-09T12:04:34;15.00;99.90
15107;DHT22;7654;45.308;-75.096;2022-09-09T12:07:21;15.20;99.90
15107;DHT22;7654;45.308;-75.096;2022-09-09T12:09:55;15.30;99.90
15107;DHT22;7654;45.308;-75.096;2022-09-09T12:12:29;15.40;99.90
15107;DHT22;7654;45.308;-75.096;2022-09-09T12:17:50;15.60;99.90
15107;DHT22;7654;45.308;-75.096;2022-09-09T12:20:22;15.70;99.90
15107;DHT22;7654;45.308;-75.096;2022-09-09T12:25:47;16.00;99.90
15107;DHT22;7654;45.308;-75.096;2022-09-09T12:28:18;16.10;99.90
15107;DHT22;7654;45.308;-75.096;2022-09-09T12:30:49;16.20;99.90
15107;DHT22;7654;45.308;-75.096;2022-09-09T12:33:22;16.30;99.90
15107;DHT22;7654;45.308;-75.096;2022-09-09T12:35:54;16.40;99.90
15107;DHT22;7654;45.308;-75.096;2022-09-09T12:38:26;16.50;99.90
15107;DHT22;7654;45.308;-75.096;2022-09-09T12:40:59;16.60;99.90
15107;DHT22;7654;45.308;-75.096;2022-09-09T12:43:29;16.70;99.90
15107;DHT22;7654;45.308;-75.096;2022-09-09T12:46:00;16.80;99.90
15107;DHT22;7654;45.308;-75.096;2022-09-09T12:48:32;16.80;99.90
15107;DHT22;7654;45.308;-75.096;2022-09-09T12:51:04;16.90;99.90
15107;DHT22;7654;45.308;-75.096;2022-09-09T12:53:34;17.00;99.90
15107;DHT22;7654;45.308;-75.096;2022-09-09T12:56:06;17.10;99.90
15107;DHT22;7654;45.308;-75.096;2022-09-09T12:58:36;17.20;99.90
15107;DHT22;7654;45.308;-75.096;2022-09-09T13:01:17;17.20;99.90
15107;DHT22;7654;45.308;-75.096;2022-09-09T13:03:48;17.30;99.90
15107;DHT22;7654;45.308;-75.096;2022-09-09T13:06:20;17.40;99.90
15107;DHT22;7654;45.308;-75.096;2022-09-09T13:08:55;17.50;99.90
15107;DHT22;7654;45.308;-75.096;2022-09-09T13:11:26;17.70;99.90
15107;DHT22;7654;45.308;-75.096;2022-09-09T13:13:58;17.70;99.90
15107;DHT22;7654;45.308;-75.096;2022-09-09T13:16:28;17.80;99.90
15107;DHT22;7654;45.308;-75.096;2022-09-09T13:19:07;17.90;99.90
15107;DHT22;7654;45.308;-75.096;2022-09-09T13:21:38;18.00;99.90
15107;DHT22;7654;45.308;-75.096;2022-09-09T13:24:21;18.10;99.90
15107;DHT22;7654;45.308;-75.096;2022-09-09T13:26:54;18.20;99.90
15107;DHT22;7654;45.308;-75.096;2022-09-09T13:29:24;18.30;99.90
15107;DHT22;7654;45.308;-75.096;2022-09-09T13:31:53;18.40;99.90
15107;DHT22;7654;45.308;-75.096;2022-09-09T13:34:28;18.50;99.90
15107;DHT22;7654;45.308;-75.096;2022-09-09T13:36:59;18.60;99.90
15107;DHT22;7654;45.308;-75.096;2022-09-09T13:39:33;18.70;99.90
15107;DHT22;7654;45.308;-75.096;2022-09-09T13:42:04;18.80;99.90
15107;DHT22;7654;45.308;-75.096;2022-09-09T13:44:35;19.00;99.90
15107;DHT22;7654;45.308;-75.096;2022-09-09T13:47:05;19.10;99.90
15107;DHT22;7654;45.308;-75.096;2022-09-09T13:49:36;19.20;99.90
15107;DHT22;7654;45.308;-75.096;2022-09-09T13:52:10;19.30;99.90
15107;DHT22;7654;45.308;-75.096;2022-09-09T13:54:41;19.40;99.90
15107;DHT22;7654;45.308;-75.096;2022-09-09T13:59:46;19.60;99.90
15107;DHT22;7654;45.308;-75.096;2022-09-09T14:02:32;19.70;99.90
15107;DHT22;7654;45.308;-75.096;2022-09-09T14:05:03;19.80;99.90
15107;DHT22;7654;45.308;-75.096;2022-09-09T14:07:34;19.90;99.90
15107;DHT22;7654;45.308;-75.096;2022-09-09T14:10:06;20.00;99.90
15107;DHT22;7654;45.308;-75.096;2022-09-09T14:12:35;20.10;99.90
15107;DHT22;7654;45.308;-75.096;2022-09-09T14:15:06;20.30;99.90
15107;DHT22;7654;45.308;-75.096;2022-09-09T14:17:36;20.40;99.90
15107;DHT22;7654;45.308;-75.096;2022-09-09T14:20:06;20.60;99.90
15107;DHT22;7654;45.308;-75.096;2022-09-09T14:22:38;20.60;99.90
15107;DHT22;7654;45.308;-75.096;2022-09-09T14:25:08;20.70;99.90
15107;DHT22;7654;45.308;-75.096;2022-09-09T14:27:39;20.90;99.90
15107;DHT22;7654;45.308;-75.096;2022-09-09T14:30:10;21.10;99.90
15107;DHT22;7654;45.308;-75.096;2022-09-09T14:32:39;21.20;99.90
15107;DHT22;7654;45.308;-75.096;2022-09-09T14:35:09;21.30;99.90
15107;DHT22;7654;45.308;-75.096;2022-09-09T14:37:41;21.50;99.90
15107;DHT22;7654;45.308;-75.096;2022-09-09T14:40:11;21.60;99.90
15107;DHT22;7654;45.308;-75.096;2022-09-09T14:42:41;21.70;99.90
15107;DHT22;7654;45.308;-75.096;2022-09-09T14:48:15;22.00;99.90
15107;DHT22;7654;45.308;-75.096;2022-09-09T14:50:45;22.10;99.90
15107;DHT22;7654;45.308;-75.096;2022-09-09T14:53:16;22.20;99.90
15107;DHT22;7654;45.308;-75.096;2022-09-09T14:55:45;22.30;99.90
15107;DHT22;7654;45.308;-75.096;2022-09-09T14:58:15;22.40;99.90
15107;DHT22;7654;45.308;-75.096;2022-09-09T15:00:45;22.50;99.90
15107;DHT22;7654;45.308;-75.096;2022-09-09T15:03:14;22.50;99.90
15107;DHT22;7654;45.308;-75.096;2022-09-09T15:05:44;22.70;99.90
15107;DHT22;7654;45.308;-75.096;2022-09-09T15:08:16;22.90;99.90
15107;DHT22;7654;45.308;-75.096;2022-09-09T15:10:46;22.90;99.90
15107;DHT22;7654;45.308;-75.096;2022-09-09T15:13:15;23.10;99.90
15107;DHT22;7654;45.308;-75.096;2022-09-09T15:15:45;23.30;99.90
15107;DHT22;7654;45.308;-75.096;2022-09-09T15:18:18;23.40;99.90
15107;DHT22;7654;45.308;-75.096;2022-09-09T15:20:47;23.50;99.90
15107;DHT22;7654;45.308;-75.096;2022-09-09T15:23:19;23.70;99.90
15107;DHT22;7654;45.308;-75.096;2022-09-09T15:25:52;23.80;99.90
15107;DHT22;7654;45.308;-75.096;2022-09-09T15:28:22;23.90;99.90
15107;DHT22;7654;45.308;-75.096;2022-09-09T15:30:52;24.00;99.90
15107;DHT22;7654;45.308;-75.096;2022-09-09T15:33:22;24.10;99.90
15107;DHT22;7654;45.308;-75.096;2022-09-09T15:35:52;24.20;99.90
15107;DHT22;7654;45.308;-75.096;2022-09-09T15:38:23;24.30;99.90
15107;DHT22;7654;45.308;-75.096;2022-09-09T15:40:53;24.40;99.90
15107;DHT22;7654;45.308;-75.096;2022-09-09T15:43:23;24.50;99.90
15107;DHT22;7654;45.308;-75.096;2022-09-09T15:45:54;24.60;99.90
15107;DHT22;7654;45.308;-75.096;2022-09-09T15:48:28;24.70;99.90
15107;DHT22;7654;45.308;-75.096;2022-09-09T15:51:15;24.80;99.90
15107;DHT22;7654;45.308;-75.096;2022-09-09T15:54:06;24.90;99.90
15107;DHT22;7654;45.308;-75.096;2022-09-09T15:56:35;25.00;99.90
15107;DHT22;7654;45.308;-75.096;2022-09-09T15:59:04;25.00;99.90
15107;DHT22;7654;45.308;-75.096;2022-09-09T16:01:34;25.10;99.90
15107;DHT22;7654;45.308;-75.096;2022-09-09T16:04:04;25.20;99.90
15107;DHT22;7654;45.308;-75.096;2022-09-09T16:06:33;25.30;99.90
15107;DHT22;7654;45.308;-75.096;2022-09-09T16:09:06;25.40;99.90